sensor_id;sensor_type;location;lat;lon;timestamp;P1;durP1;ratioP1;P2;durP2;ratioP2
55674;SDS011;41562;44.330;23.802;2023-07-29T00:01:13;2.75;;;2.20;;
55674;SDS011;41562;44.330;23.802;2023-07-29T00:03:44;2.40;;;1.95;;
55674;SDS011;41562;44.330;23.802;2023-07-29T00:08:42;3.30;;;2.20;;
55674;SDS011;41562;44.330;23.802;2023-07-29T00:11:10;4.32;;;2.28;;
55674;SDS011;41562;44.330;23.802;2023-07-29T00:13:45;4.38;;;2.15;;
55674;SDS011;41562;44.330;23.802;2023-07-29T00:16:13;4.28;;;2.05;;
55674;SDS011;41562;44.330;23.802;2023-07-29T00:18:43;2.58;;;2.13;;
55674;SDS011;41562;44.330;23.802;2023-07-29T00:21:20;3.03;;;2.10;;
55674;SDS011;41562;44.330;23.802;2023-07-29T00:23:55;3.67;;;2.20;;
55674;SDS011;41562;44.330;23.802;2023-07-29T00:28:52;3.72;;;1.70;;
55674;SDS011;41562;44.330;23.802;2023-07-29T00:31:24;2.60;;;1.80;;
55674;SDS011;41562;44.330;23.802;2023-07-29T00:33:57;4.63;;;2.13;;
55674;SDS011;41562;44.330;23.802;2023-07-29T00:36:27;6.15;;;2.35;;
55674;SDS011;41562;44.330;23.802;2023-07-29T00:38:55;2.03;;;1.67;;
55674;SDS011;41562;44.330;23.802;2023-07-29T00:41:26;3.92;;;2.17;;
55674;SDS011;41562;44.330;23.802;2023-07-29T00:43:56;3.00;;;2.15;;
55674;SDS011;41562;44.330;23.802;2023-07-29T00:46:25;5.57;;;2.35;;
55674;SDS011;41562;44.330;23.802;2023-07-29T00:49:07;3.95;;;2.00;;
55674;SDS011;41562;44.330;23.802;2023-07-29T00:51:54;3.45;;;2.22;;
55674;SDS011;41562;44.330;23.802;2023-07-29T00:54:47;9.77;;;2.75;;
55674;SDS011;41562;44.330;23.802;2023-07-29T00:57:37;2.72;;;2.30;;
55674;SDS011;41562;44.330;23.802;2023-07-29T01:00:33;3.47;;;2.17;;
55674;SDS011;41562;44.330;23.802;2023-07-29T01:03:29;4.50;;;2.95;;
55674;SDS011;41562;44.330;23.802;2023-07-29T01:06:25;3.33;;;1.85;;
55674;SDS011;41562;44.330;23.802;2023-07-29T01:12:21;1.98;;;1.75;;
55674;SDS011;41562;44.330;23.802;2023-07-29T01:15:00;3.38;;;1.90;;
55674;SDS011;41562;44.330;23.802;2023-07-29T01:17:37;5.00;;;2.05;;
55674;SDS011;41562;44.330;23.802;2023-07-29T01:20:16;2.58;;;2.08;;
55674;SDS011;41562;44.330;23.802;2023-07-29T01:22:52;3.63;;;1.55;;
55674;SDS011;41562;44.330;23.802;2023-07-29T01:25:19;3.78;;;1.70;;
55674;SDS011;41562;44.330;23.802;2023-07-29T01:27:49;3.63;;;1.80;;
55674;SDS011;41562;44.330;23.802;2023-07-29T01:30:21;3.75;;;1.90;;
55674;SDS011;41562;44.330;23.802;2023-07-29T01:38:35;2.22;;;1.70;;
55674;SDS011;41562;44.330;23.802;2023-07-29T01:41:01;3.67;;;1.98;;
55674;SDS011;41562;44.330;23.802;2023-07-29T01:43:37;3.80;;;1.77;;
55674;SDS011;41562;44.330;23.802;2023-07-29T01:46:14;3.05;;;2.13;;
55674;SDS011;41562;44.330;23.802;2023-07-29T01:48:42;3.40;;;1.50;;
55674;SDS011;41562;44.330;23.802;2023-07-29T01:51:13;3.17;;;2.27;;
55674;SDS011;41562;44.330;23.802;2023-07-29T01:53:48;3.10;;;2.13;;
55674;SDS011;41562;44.330;23.802;2023-07-29T01:56:16;6.78;;;2.33;;
55674;SDS011;41562;44.330;23.802;2023-07-29T01:58:43;2.90;;;1.95;;
55674;SDS011;41562;44.330;23.802;2023-07-29T02:01:14;2.58;;;2.22;;
55674;SDS011;41562;44.330;23.802;2023-07-29T02:03:42;3.72;;;2.45;;
55674;SDS011;41562;44.330;23.802;2023-07-29T02:06:16;4.30;;;1.95;;
55674;SDS011;41562;44.330;23.802;2023-07-29T02:08:47;8.70;;;1.95;;
55674;SDS011;41562;44.330;23.802;2023-07-29T02:11:18;3.10;;;1.83;;
55674;SDS011;41562;44.330;23.802;2023-07-29T02:13:46;2.63;;;2.00;;
55674;SDS011;41562;44.330;23.802;2023-07-29T02:16:24;1.77;;;1.60;;
55674;SDS011;41562;44.330;23.802;2023-07-29T02:18:53;1.98;;;1.70;;
55674;SDS011;41562;44.330;23.802;2023-07-29T02:21:22;2.03;;;1.63;;
55674;SDS011;41562;44.330;23.802;2023-07-29T02:23:50;5.15;;;2.15;;
55674;SDS011;41562;44.330;23.802;2023-07-29T02:26:25;3.78;;;2.30;;
55674;SDS011;41562;44.330;23.802;2023-07-29T02:28:55;3.20;;;1.98;;
55674;SDS011;41562;44.330;23.802;2023-07-29T02:31:24;3.30;;;1.98;;
55674;SDS011;41562;44.330;23.802;2023-07-29T02:33:58;2.20;;;2.00;;
55674;SDS011;41562;44.330;23.802;2023-07-29T02:36:26;2.03;;;1.73;;
55674;SDS011;41562;44.330;23.802;2023-07-29T02:38:57;2.33;;;1.88;;
55674;SDS011;41562;44.330;23.802;2023-07-29T02:41:24;3.65;;;2.15;;
55674;SDS011;41562;44.330;23.802;2023-07-29T02:43:56;3.30;;;2.05;;
55674;SDS011;41562;44.330;23.802;2023-07-29T02:46:23;2.30;;;1.95;;
55674;SDS011;41562;44.330;23.802;2023-07-29T02:48:52;3.10;;;2.28;;
55674;SDS011;41562;44.330;23.802;2023-07-29T02:51:27;2.60;;;1.80;;
55674;SDS011;41562;44.330;23.802;2023-07-29T02:53:57;3.88;;;2.67;;
55674;SDS011;41562;44.330;23.802;2023-07-29T02:56:29;4.32;;;2.53;;
55674;SDS011;41562;44.330;23.802;2023-07-29T02:58:57;4.97;;;2.53;;
55674;SDS011;41562;44.330;23.802;2023-07-29T03:01:29;4.75;;;2.05;;
55674;SDS011;41562;44.330;23.802;2023-07-29T03:03:59;2.85;;;2.35;;
55674;SDS011;41562;44.330;23.802;2023-07-29T03:06:30;1.92;;;1.73;;
55674;SDS011;41562;44.330;23.802;2023-07-29T03:08:58;1.98;;;1.48;;
55674;SDS011;41562;44.330;23.802;2023-07-29T03:11:32;4.65;;;2.38;;
55674;SDS011;41562;44.330;23.802;2023-07-29T03:14:01;2.15;;;1.95;;
55674;SDS011;41562;44.330;23.802;2023-07-29T03:16:35;8.55;;;2.42;;
55674;SDS011;41562;44.330;23.802;2023-07-29T03:19:10;5.10;;;1.77;;
55674;SDS011;41562;44.330;23.802;2023-07-29T03:21:41;2.45;;;2.05;;
55674;SDS011;41562;44.330;23.802;2023-07-29T03:24:09;3.17;;;1.73;;
55674;SDS011;41562;44.330;23.802;2023-07-29T03:26:40;5.78;;;2.40;;
55674;SDS011;41562;44.330;23.802;2023-07-29T03:29:14;3.75;;;1.95;;
55674;SDS011;41562;44.330;23.802;2023-07-29T03:31:42;6.22;;;2.33;;
55674;SDS011;41562;44.330;23.802;2023-07-29T03:34:12;1.80;;;1.38;;
55674;SDS011;41562;44.330;23.802;2023-07-29T03:36:44;2.28;;;2.08;;
55674;SDS011;41562;44.330;23.802;2023-07-29T03:39:12;3.20;;;2.50;;
55674;SDS011;41562;44.330;23.802;2023-07-29T03:41:46;4.43;;;2.60;;
55674;SDS011;41562;44.330;23.802;2023-07-29T03:44:17;3.03;;;2.03;;
55674;SDS011;41562;44.330;23.802;2023-07-29T03:46:47;2.95;;;2.00;;
55674;SDS011;41562;44.330;23.802;2023-07-29T03:49:22;2.42;;;2.00;;
55674;SDS011;41562;44.330;23.802;2023-07-29T03:51:53;2.60;;;2.17;;
55674;SDS011;41562;44.330;23.802;2023-07-29T03:54:23;2.47;;;2.28;;
55674;SDS011;41562;44.330;23.802;2023-07-29T03:56:51;4.57;;;2.03;;
55674;SDS011;41562;44.330;23.802;2023-07-29T03:59:21;2.63;;;1.90;;
55674;SDS011;41562;44.330;23.802;2023-07-29T04:01:49;2.55;;;2.30;;
55674;SDS011;41562;44.330;23.802;2023-07-29T04:04:23;3.20;;;2.22;;
55674;SDS011;41562;44.330;23.802;2023-07-29T04:06:53;3.55;;;2.45;;
55674;SDS011;41562;44.330;23.802;2023-07-29T04:09:23;1.98;;;1.80;;
55674;SDS011;41562;44.330;23.802;2023-07-29T04:11:54;3.33;;;1.75;;
55674;SDS011;41562;44.330;23.802;2023-07-29T04:16:49;2.13;;;1.90;;
55674;SDS011;41562;44.330;23.802;2023-07-29T04:19:16;3.63;;;1.85;;
55674;SDS011;41562;44.330;23.802;2023-07-29T04:21:44;3.53;;;2.60;;
55674;SDS011;41562;44.330;23.802;2023-07-29T04:24:14;3.13;;;2.25;;
55674;SDS011;41562;44.330;23.802;2023-07-29T04:26:42;2.42;;;1.90;;
55674;SDS011;41562;44.330;23.802;2023-07-29T04:29:18;2.85;;;1.85;;
55674;SDS011;41562;44.330;23.802;2023-07-29T04:31:55;2.50;;;1.80;;
55674;SDS011;41562;44.330;23.802;2023-07-29T04:34:23;6.55;;;2.53;;
55674;SDS011;41562;44.330;23.802;2023-07-29T04:36:50;4.75;;;1.98;;
55674;SDS011;41562;44.330;23.802;2023-07-29T04:39:18;4.70;;;2.45;;
55674;SDS011;41562;44.330;23.802;2023-07-29T04:41:46;1.77;;;1.65;;
55674;SDS011;41562;44.330;23.802;2023-07-29T04:44:13;3.80;;;2.10;;
55674;SDS011;41562;44.330;23.802;2023-07-29T04:46:47;2.85;;;2.08;;
55674;SDS011;41562;44.330;23.802;2023-07-29T04:49:20;2.80;;;1.95;;
55674;SDS011;41562;44.330;23.802;2023-07-29T04:51:51;2.45;;;2.10;;
55674;SDS011;41562;44.330;23.802;2023-07-29T04:54:22;4.28;;;2.40;;
55674;SDS011;41562;44.330;23.802;2023-07-29T04:56:49;3.28;;;1.92;;
55674;SDS011;41562;44.330;23.802;2023-07-29T05:01:51;3.95;;;2.22;;
55674;SDS011;41562;44.330;23.802;2023-07-29T05:04:27;3.08;;;2.20;;
55674;SDS011;41562;44.330;23.802;2023-07-29T05:06:55;2.80;;;2.28;;
55674;SDS011;41562;44.330;23.802;2023-07-29T05:09:30;2.80;;;1.77;;
55674;SDS011;41562;44.330;23.802;2023-07-29T05:11:58;2.83;;;2.28;;
55674;SDS011;41562;44.330;23.802;2023-07-29T05:14:30;2.70;;;1.75;;
55674;SDS011;41562;44.330;23.802;2023-07-29T05:17:00;2.55;;;1.90;;
55674;SDS011;41562;44.330;23.802;2023-07-29T05:19:33;3.28;;;2.55;;
55674;SDS011;41562;44.330;23.802;2023-07-29T05:22:03;4.47;;;2.53;;
55674;SDS011;41562;44.330;23.802;2023-07-29T05:24:32;2.90;;;2.20;;
55674;SDS011;41562;44.330;23.802;2023-07-29T05:27:00;2.55;;;1.77;;
55674;SDS011;41562;44.330;23.802;2023-07-29T05:29:34;3.78;;;2.47;;
55674;SDS011;41562;44.330;23.802;2023-07-29T05:32:01;2.90;;;1.80;;
55674;SDS011;41562;44.330;23.802;2023-07-29T05:34:35;4.88;;;2.30;;
55674;SDS011;41562;44.330;23.802;2023-07-29T05:37:08;6.78;;;2.08;;
55674;SDS011;41562;44.330;23.802;2023-07-29T05:39:36;2.45;;;2.10;;
55674;SDS011;41562;44.330;23.802;2023-07-29T05:44:38;2.55;;;1.92;;
55674;SDS011;41562;44.330;23.802;2023-07-29T05:47:11;6.05;;;2.28;;
55674;SDS011;41562;44.330;23.802;2023-07-29T05:49:39;3.60;;;2.40;;
55674;SDS011;41562;44.330;23.802;2023-07-29T05:52:16;3.17;;;1.90;;
55674;SDS011;41562;44.330;23.802;2023-07-29T05:54:44;3.15;;;1.92;;
55674;SDS011;41562;44.330;23.802;2023-07-29T05:57:17;3.85;;;2.33;;
55674;SDS011;41562;44.330;23.802;2023-07-29T05:59:45;2.65;;;2.00;;
55674;SDS011;41562;44.330;23.802;2023-07-29T06:02:13;5.75;;;2.25;;
55674;SDS011;41562;44.330;23.802;2023-07-29T06:04:41;4.22;;;2.70;;
55674;SDS011;41562;44.330;23.802;2023-07-29T06:07:13;3.97;;;2.10;;
55674;SDS011;41562;44.330;23.802;2023-07-29T06:09:41;2.30;;;1.90;;
55674;SDS011;41562;44.330;23.802;2023-07-29T06:12:14;4.05;;;2.38;;
55674;SDS011;41562;44.330;23.802;2023-07-29T06:14:45;5.25;;;2.50;;
55674;SDS011;41562;44.330;23.802;2023-07-29T06:17:15;5.07;;;2.50;;
55674;SDS011;41562;44.330;23.802;2023-07-29T06:19:43;3.67;;;2.75;;
55674;SDS011;41562;44.330;23.802;2023-07-29T06:22:10;3.42;;;2.13;;
55674;SDS011;41562;44.330;23.802;2023-07-29T06:24:38;5.57;;;2.35;;
55674;SDS011;41562;44.330;23.802;2023-07-29T06:27:05;3.65;;;2.33;;
55674;SDS011;41562;44.330;23.802;2023-07-29T06:29:38;4.07;;;2.40;;
55674;SDS011;41562;44.330;23.802;2023-07-29T06:32:06;3.17;;;2.40;;
55674;SDS011;41562;44.330;23.802;2023-07-29T06:34:34;4.45;;;2.53;;
55674;SDS011;41562;44.330;23.802;2023-07-29T06:37:04;4.18;;;2.50;;
55674;SDS011;41562;44.330;23.802;2023-07-29T06:39:33;3.05;;;2.72;;
55674;SDS011;41562;44.330;23.802;2023-07-29T06:42:03;3.88;;;2.60;;
55674;SDS011;41562;44.330;23.802;2023-07-29T06:44:30;2.38;;;2.10;;
55674;SDS011;41562;44.330;23.802;2023-07-29T06:46:58;3.42;;;2.35;;
55674;SDS011;41562;44.330;23.802;2023-07-29T06:49:25;2.47;;;1.88;;
55674;SDS011;41562;44.330;23.802;2023-07-29T06:51:53;4.75;;;1.85;;
55674;SDS011;41562;44.330;23.802;2023-07-29T06:54:26;2.83;;;2.20;;
55674;SDS011;41562;44.330;23.802;2023-07-29T06:56:57;2.60;;;1.65;;
55674;SDS011;41562;44.330;23.802;2023-07-29T06:59:28;4.28;;;1.92;;
55674;SDS011;41562;44.330;23.802;2023-07-29T07:01:55;5.32;;;2.40;;
55674;SDS011;41562;44.330;23.802;2023-07-29T07:04:25;3.00;;;2.33;;
55674;SDS011;41562;44.330;23.802;2023-07-29T07:06:53;4.45;;;2.78;;
55674;SDS011;41562;44.330;23.802;2023-07-29T07:09:20;3.70;;;2.40;;
55674;SDS011;41562;44.330;23.802;2023-07-29T07:11:48;4.18;;;2.25;;
55674;SDS011;41562;44.330;23.802;2023-07-29T07:14:18;4.22;;;2.45;;
55674;SDS011;41562;44.330;23.802;2023-07-29T07:16:49;7.90;;;2.80;;
55674;SDS011;41562;44.330;23.802;2023-07-29T07:19:22;3.85;;;2.42;;
55674;SDS011;41562;44.330;23.802;2023-07-29T07:21:55;2.95;;;2.28;;
55674;SDS011;41562;44.330;23.802;2023-07-29T07:24:25;4.20;;;2.53;;
55674;SDS011;41562;44.330;23.802;2023-07-29T07:26:55;5.60;;;2.65;;
55674;SDS011;41562;44.330;23.802;2023-07-29T07:29:22;11.35;;;2.90;;
55674;SDS011;41562;44.330;23.802;2023-07-29T07:31:51;7.07;;;2.55;;
55674;SDS011;41562;44.330;23.802;2023-07-29T07:34:23;3.63;;;2.53;;
55674;SDS011;41562;44.330;23.802;2023-07-29T07:36:51;3.30;;;2.45;;
55674;SDS011;41562;44.330;23.802;2023-07-29T07:39:22;3.67;;;2.78;;
55674;SDS011;41562;44.330;23.802;2023-07-29T07:41:59;4.03;;;2.58;;
55674;SDS011;41562;44.330;23.802;2023-07-29T07:44:26;4.32;;;2.40;;
55674;SDS011;41562;44.330;23.802;2023-07-29T07:46:56;2.90;;;2.53;;
55674;SDS011;41562;44.330;23.802;2023-07-29T07:49:31;3.47;;;2.38;;
55674;SDS011;41562;44.330;23.802;2023-07-29T07:52:02;3.00;;;2.53;;
55674;SDS011;41562;44.330;23.802;2023-07-29T07:54:32;3.95;;;2.40;;
55674;SDS011;41562;44.330;23.802;2023-07-29T07:57:02;4.77;;;2.50;;
55674;SDS011;41562;44.330;23.802;2023-07-29T07:59:33;4.57;;;2.60;;
55674;SDS011;41562;44.330;23.802;2023-07-29T08:02:00;8.38;;;2.50;;
55674;SDS011;41562;44.330;23.802;2023-07-29T08:04:29;4.97;;;2.50;;
55674;SDS011;41562;44.330;23.802;2023-07-29T08:06:56;4.55;;;2.38;;
55674;SDS011;41562;44.330;23.802;2023-07-29T08:09:24;5.20;;;2.50;;
55674;SDS011;41562;44.330;23.802;2023-07-29T08:11:57;4.78;;;2.10;;
55674;SDS011;41562;44.330;23.802;2023-07-29T08:14:24;4.07;;;2.30;;
55674;SDS011;41562;44.330;23.802;2023-07-29T08:16:55;3.42;;;2.85;;
55674;SDS011;41562;44.330;23.802;2023-07-29T08:19:23;4.93;;;2.55;;
55674;SDS011;41562;44.330;23.802;2023-07-29T08:21:50;2.90;;;2.20;;
55674;SDS011;41562;44.330;23.802;2023-07-29T08:24:18;4.63;;;2.35;;
55674;SDS011;41562;44.330;23.802;2023-07-29T08:26:46;9.32;;;2.47;;
55674;SDS011;41562;44.330;23.802;2023-07-29T08:29:13;3.13;;;2.13;;
55674;SDS011;41562;44.330;23.802;2023-07-29T08:31:40;4.72;;;2.40;;
55674;SDS011;41562;44.330;23.802;2023-07-29T08:34:08;4.10;;;3.10;;
55674;SDS011;41562;44.330;23.802;2023-07-29T08:36:35;3.67;;;2.30;;
55674;SDS011;41562;44.330;23.802;2023-07-29T08:39:03;3.97;;;2.15;;
55674;SDS011;41562;44.330;23.802;2023-07-29T08:44:43;4.75;;;2.13;;
55674;SDS011;41562;44.330;23.802;2023-07-29T08:47:13;2.90;;;2.17;;
55674;SDS011;41562;44.330;23.802;2023-07-29T08:49:41;3.60;;;2.22;;
55674;SDS011;41562;44.330;23.802;2023-07-29T08:52:15;2.33;;;1.90;;
55674;SDS011;41562;44.330;23.802;2023-07-29T08:54:43;5.25;;;2.75;;
55674;SDS011;41562;44.330;23.802;2023-07-29T08:57:10;2.67;;;2.03;;
55674;SDS011;41562;44.330;23.802;2023-07-29T08:59:38;2.38;;;1.90;;
55674;SDS011;41562;44.330;23.802;2023-07-29T09:02:06;2.88;;;2.33;;
55674;SDS011;41562;44.330;23.802;2023-07-29T09:04:33;3.47;;;2.10;;
55674;SDS011;41562;44.330;23.802;2023-07-29T09:07:01;2.83;;;2.10;;
55674;SDS011;41562;44.330;23.802;2023-07-29T09:09:29;2.67;;;2.22;;
55674;SDS011;41562;44.330;23.802;2023-07-29T09:11:56;2.25;;;2.05;;
55674;SDS011;41562;44.330;23.802;2023-07-29T09:14:24;4.03;;;2.25;;
55674;SDS011;41562;44.330;23.802;2023-07-29T09:16:52;3.13;;;2.25;;
55674;SDS011;41562;44.330;23.802;2023-07-29T09:19:20;4.07;;;1.98;;
55674;SDS011;41562;44.330;23.802;2023-07-29T09:21:48;4.50;;;2.45;;
55674;SDS011;41562;44.330;23.802;2023-07-29T09:24:16;5.75;;;2.72;;
55674;SDS011;41562;44.330;23.802;2023-07-29T09:26:50;6.38;;;2.20;;
55674;SDS011;41562;44.330;23.802;2023-07-29T09:29:21;3.58;;;2.17;;
55674;SDS011;41562;44.330;23.802;2023-07-29T09:31:49;2.78;;;1.98;;
55674;SDS011;41562;44.330;23.802;2023-07-29T09:34:17;2.45;;;2.00;;
55674;SDS011;41562;44.330;23.802;2023-07-29T09:36:46;2.38;;;1.90;;
55674;SDS011;41562;44.330;23.802;2023-07-29T09:39:17;5.03;;;2.28;;
55674;SDS011;41562;44.330;23.802;2023-07-29T09:41:47;2.65;;;2.00;;
55674;SDS011;41562;44.330;23.802;2023-07-29T09:44:18;2.13;;;1.58;;
55674;SDS011;41562;44.330;23.802;2023-07-29T09:46:45;2.60;;;2.28;;
55674;SDS011;41562;44.330;23.802;2023-07-29T09:49:13;2.85;;;1.80;;
55674;SDS011;41562;44.330;23.802;2023-07-29T09:51:43;2.53;;;1.90;;
55674;SDS011;41562;44.330;23.802;2023-07-29T09:54:10;2.55;;;2.20;;
55674;SDS011;41562;44.330;23.802;2023-07-29T09:56:41;2.47;;;2.08;;
55674;SDS011;41562;44.330;23.802;2023-07-29T09:59:09;2.42;;;1.92;;
55674;SDS011;41562;44.330;23.802;2023-07-29T10:01:37;2.70;;;1.98;;
55674;SDS011;41562;44.330;23.802;2023-07-29T10:04:06;2.55;;;1.90;;
55674;SDS011;41562;44.330;23.802;2023-07-29T10:06:37;3.63;;;2.00;;
55674;SDS011;41562;44.330;23.802;2023-07-29T10:09:06;3.25;;;1.80;;
55674;SDS011;41562;44.330;23.802;2023-07-29T10:11:34;2.70;;;2.00;;
55674;SDS011;41562;44.330;23.802;2023-07-29T10:14:03;2.88;;;1.85;;
55674;SDS011;41562;44.330;23.802;2023-07-29T10:16:39;2.30;;;2.10;;
55674;SDS011;41562;44.330;23.802;2023-07-29T10:19:07;2.42;;;1.88;;
55674;SDS011;41562;44.330;23.802;2023-07-29T10:21:38;2.63;;;2.00;;
55674;SDS011;41562;44.330;23.802;2023-07-29T10:24:08;4.65;;;1.88;;
55674;SDS011;41562;44.330;23.802;2023-07-29T10:26:38;2.75;;;1.98;;
55674;SDS011;41562;44.330;23.802;2023-07-29T10:29:12;1.65;;;1.50;;
55674;SDS011;41562;44.330;23.802;2023-07-29T10:31:40;2.03;;;1.50;;
55674;SDS011;41562;44.330;23.802;2023-07-29T10:34:10;3.25;;;1.90;;
55674;SDS011;41562;44.330;23.802;2023-07-29T10:36:39;2.90;;;1.80;;
55674;SDS011;41562;44.330;23.802;2023-07-29T10:39:07;2.53;;;1.90;;
55674;SDS011;41562;44.330;23.802;2023-07-29T10:47:27;3.55;;;2.05;;
55674;SDS011;41562;44.330;23.802;2023-07-29T10:49:56;2.53;;;1.90;;
55674;SDS011;41562;44.330;23.802;2023-07-29T10:52:58;4.45;;;2.10;;
55674;SDS011;41562;44.330;23.802;2023-07-29T10:58:07;2.08;;;1.85;;
55674;SDS011;41562;44.330;23.802;2023-07-29T11:00:43;2.15;;;1.60;;
55674;SDS011;41562;44.330;23.802;2023-07-29T11:03:13;3.13;;;2.00;;
55674;SDS011;41562;44.330;23.802;2023-07-29T11:05:41;3.55;;;1.80;;
55674;SDS011;41562;44.330;23.802;2023-07-29T11:11:11;2.17;;;1.75;;
55674;SDS011;41562;44.330;23.802;2023-07-29T11:13:38;4.00;;;1.95;;
55674;SDS011;41562;44.330;23.802;2023-07-29T11:16:06;1.92;;;1.70;;
55674;SDS011;41562;44.330;23.802;2023-07-29T11:18:34;4.03;;;2.63;;
55674;SDS011;41562;44.330;23.802;2023-07-29T11:21:03;2.92;;;1.48;;
55674;SDS011;41562;44.330;23.802;2023-07-29T11:23:32;1.88;;;1.48;;
55674;SDS011;41562;44.330;23.802;2023-07-29T11:26:04;1.88;;;1.50;;
55674;SDS011;41562;44.330;23.802;2023-07-29T11:28:37;1.80;;;1.70;;
55674;SDS011;41562;44.330;23.802;2023-07-29T11:31:05;2.17;;;1.45;;
55674;SDS011;41562;44.330;23.802;2023-07-29T11:33:33;2.22;;;1.60;;
55674;SDS011;41562;44.330;23.802;2023-07-29T11:36:00;4.28;;;2.17;;
55674;SDS011;41562;44.330;23.802;2023-07-29T11:38:28;3.10;;;1.77;;
55674;SDS011;41562;44.330;23.802;2023-07-29T11:40:59;2.85;;;1.67;;
55674;SDS011;41562;44.330;23.802;2023-07-29T11:43:27;2.38;;;1.63;;
55674;SDS011;41562;44.330;23.802;2023-07-29T11:45:55;1.92;;;1.70;;
55674;SDS011;41562;44.330;23.802;2023-07-29T11:48:30;2.35;;;1.70;;
55674;SDS011;41562;44.330;23.802;2023-07-29T11:50:59;1.75;;;1.35;;
55674;SDS011;41562;44.330;23.802;2023-07-29T11:53:30;1.40;;;1.20;;
55674;SDS011;41562;44.330;23.802;2023-07-29T11:55:58;2.78;;;1.27;;
55674;SDS011;41562;44.330;23.802;2023-07-29T11:58:27;2.63;;;1.38;;
55674;SDS011;41562;44.330;23.802;2023-07-29T12:00:55;2.13;;;1.40;;
55674;SDS011;41562;44.330;23.802;2023-07-29T12:03:23;1.73;;;1.38;;
55674;SDS011;41562;44.330;23.802;2023-07-29T12:05:53;2.55;;;1.80;;
55674;SDS011;41562;44.330;23.802;2023-07-29T12:08:21;3.67;;;1.67;;
55674;SDS011;41562;44.330;23.802;2023-07-29T12:10:48;4.93;;;1.98;;
55674;SDS011;41562;44.330;23.802;2023-07-29T12:13:16;3.65;;;1.75;;
55674;SDS011;41562;44.330;23.802;2023-07-29T12:15:50;1.25;;;1.08;;
55674;SDS011;41562;44.330;23.802;2023-07-29T12:20:57;1.73;;;1.48;;
55674;SDS011;41562;44.330;23.802;2023-07-29T12:23:28;3.00;;;1.38;;
55674;SDS011;41562;44.330;23.802;2023-07-29T12:25:59;1.77;;;1.50;;
55674;SDS011;41562;44.330;23.802;2023-07-29T12:28:38;2.30;;;1.52;;
55674;SDS011;41562;44.330;23.802;2023-07-29T12:31:16;2.00;;;1.60;;
55674;SDS011;41562;44.330;23.802;2023-07-29T12:33:49;4.05;;;1.80;;
55674;SDS011;41562;44.330;23.802;2023-07-29T12:36:42;1.48;;;1.30;;
55674;SDS011;41562;44.330;23.802;2023-07-29T12:39:19;2.25;;;1.58;;
55674;SDS011;41562;44.330;23.802;2023-07-29T12:42:02;3.67;;;1.60;;
55674;SDS011;41562;44.330;23.802;2023-07-29T12:44:34;6.40;;;1.63;;
55674;SDS011;41562;44.330;23.802;2023-07-29T12:47:04;2.45;;;1.35;;
55674;SDS011;41562;44.330;23.802;2023-07-29T12:49:37;2.45;;;1.00;;
55674;SDS011;41562;44.330;23.802;2023-07-29T12:52:05;1.30;;;1.15;;
55674;SDS011;41562;44.330;23.802;2023-07-29T12:54:35;1.35;;;1.25;;
55674;SDS011;41562;44.330;23.802;2023-07-29T12:57:06;2.50;;;1.35;;
55674;SDS011;41562;44.330;23.802;2023-07-29T12:59:41;2.05;;;1.35;;
55674;SDS011;41562;44.330;23.802;2023-07-29T13:02:09;1.73;;;1.27;;
55674;SDS011;41562;44.330;23.802;2023-07-29T13:04:44;1.40;;;1.20;;
55674;SDS011;41562;44.330;23.802;2023-07-29T13:07:12;2.67;;;1.50;;
55674;SDS011;41562;44.330;23.802;2023-07-29T13:09:45;2.30;;;1.50;;
55674;SDS011;41562;44.330;23.802;2023-07-29T13:12:12;2.42;;;1.45;;
55674;SDS011;41562;44.330;23.802;2023-07-29T13:14:57;1.73;;;1.50;;
55674;SDS011;41562;44.330;23.802;2023-07-29T13:17:30;1.95;;;1.38;;
55674;SDS011;41562;44.330;23.802;2023-07-29T13:19:57;2.00;;;1.40;;
55674;SDS011;41562;44.330;23.802;2023-07-29T13:22:24;1.17;;;1.08;;
55674;SDS011;41562;44.330;23.802;2023-07-29T13:24:52;3.38;;;1.60;;
55674;SDS011;41562;44.330;23.802;2023-07-29T13:27:19;2.15;;;1.25;;
55674;SDS011;41562;44.330;23.802;2023-07-29T13:29:50;2.00;;;1.70;;
55674;SDS011;41562;44.330;23.802;2023-07-29T13:32:18;2.55;;;1.40;;
55674;SDS011;41562;44.330;23.802;2023-07-29T13:34:53;1.85;;;1.35;;
55674;SDS011;41562;44.330;23.802;2023-07-29T13:37:20;2.50;;;1.67;;
55674;SDS011;41562;44.330;23.802;2023-07-29T13:39:47;2.03;;;1.80;;
55674;SDS011;41562;44.330;23.802;2023-07-29T13:42:15;2.22;;;1.48;;
55674;SDS011;41562;44.330;23.802;2023-07-29T13:44:42;6.55;;;1.88;;
55674;SDS011;41562;44.330;23.802;2023-07-29T13:47:12;1.70;;;1.35;;
55674;SDS011;41562;44.330;23.802;2023-07-29T13:49:47;1.65;;;1.25;;
55674;SDS011;41562;44.330;23.802;2023-07-29T13:52:15;2.80;;;1.38;;
55674;SDS011;41562;44.330;23.802;2023-07-29T13:54:43;2.83;;;1.58;;
55674;SDS011;41562;44.330;23.802;2023-07-29T13:57:17;2.95;;;1.92;;
55674;SDS011;41562;44.330;23.802;2023-07-29T13:59:48;2.05;;;1.85;;
55674;SDS011;41562;44.330;23.802;2023-07-29T14:02:17;2.17;;;1.53;;
55674;SDS011;41562;44.330;23.802;2023-07-29T14:04:45;3.05;;;2.08;;
55674;SDS011;41562;44.330;23.802;2023-07-29T14:07:12;2.30;;;1.50;;
55674;SDS011;41562;44.330;23.802;2023-07-29T14:09:39;3.05;;;1.75;;
55674;SDS011;41562;44.330;23.802;2023-07-29T14:12:12;2.30;;;1.52;;
55674;SDS011;41562;44.330;23.802;2023-07-29T14:15:01;1.42;;;1.33;;
55674;SDS011;41562;44.330;23.802;2023-07-29T14:17:46;2.75;;;1.70;;
55674;SDS011;41562;44.330;23.802;2023-07-29T14:20:35;2.88;;;1.75;;
55674;SDS011;41562;44.330;23.802;2023-07-29T14:23:20;2.22;;;1.60;;
55674;SDS011;41562;44.330;23.802;2023-07-29T14:26:06;1.77;;;1.33;;
55674;SDS011;41562;44.330;23.802;2023-07-29T14:28:51;3.08;;;1.50;;
55674;SDS011;41562;44.330;23.802;2023-07-29T14:31:36;4.18;;;1.77;;
55674;SDS011;41562;44.330;23.802;2023-07-29T14:34:24;2.72;;;1.55;;
55674;SDS011;41562;44.330;23.802;2023-07-29T14:37:12;2.40;;;1.55;;
55674;SDS011;41562;44.330;23.802;2023-07-29T14:39:58;2.38;;;1.10;;
55674;SDS011;41562;44.330;23.802;2023-07-29T14:42:46;1.80;;;1.55;;
55674;SDS011;41562;44.330;23.802;2023-07-29T14:45:35;2.83;;;1.70;;
55674;SDS011;41562;44.330;23.802;2023-07-29T14:48:26;1.48;;;1.05;;
55674;SDS011;41562;44.330;23.802;2023-07-29T14:51:18;2.90;;;1.25;;
55674;SDS011;41562;44.330;23.802;2023-07-29T14:54:10;1.42;;;0.95;;
55674;SDS011;41562;44.330;23.802;2023-07-29T14:57:06;2.42;;;1.60;;
55674;SDS011;41562;44.330;23.802;2023-07-29T14:59:58;2.17;;;1.45;;
55674;SDS011;41562;44.330;23.802;2023-07-29T15:02:54;1.95;;;1.63;;
55674;SDS011;41562;44.330;23.802;2023-07-29T15:05:45;2.17;;;1.42;;
55674;SDS011;41562;44.330;23.802;2023-07-29T15:08:38;2.22;;;1.10;;
55674;SDS011;41562;44.330;23.802;2023-07-29T15:11:31;2.88;;;1.70;;
55674;SDS011;41562;44.330;23.802;2023-07-29T15:14:27;1.65;;;1.42;;
55674;SDS011;41562;44.330;23.802;2023-07-29T15:17:18;2.40;;;1.45;;
55674;SDS011;41562;44.330;23.802;2023-07-29T15:20:16;3.53;;;1.80;;
55674;SDS011;41562;44.330;23.802;2023-07-29T15:23:08;1.85;;;1.30;;
55674;SDS011;41562;44.330;23.802;2023-07-29T15:26:01;1.95;;;1.23;;
55674;SDS011;41562;44.330;23.802;2023-07-29T15:28:56;2.08;;;1.45;;
55674;SDS011;41562;44.330;23.802;2023-07-29T15:31:49;1.88;;;1.20;;
55674;SDS011;41562;44.330;23.802;2023-07-29T15:34:50;3.60;;;1.77;;
55674;SDS011;41562;44.330;23.802;2023-07-29T15:37:41;2.97;;;1.48;;
55674;SDS011;41562;44.330;23.802;2023-07-29T15:40:10;2.80;;;1.63;;
55674;SDS011;41562;44.330;23.802;2023-07-29T15:42:39;2.55;;;1.98;;